sensor_id;sensor_type;location;lat;lon;timestamp;temperature;humidity
11818;DHT22;5966;52.402;5.322;2024-01-15T00:00:18;3.00;99.90
11818;DHT22;5966;52.402;5.322;2024-01-15T00:02:47;3.00;99.90
11818;DHT22;5966;52.402;5.322;2024-01-15T00:05:16;3.00;99.90
11818;DHT22;5966;52.402;5.322;2024-01-15T00:07:44;3.00;99.90
11818;DHT22;5966;52.402;5.322;2024-01-15T00:10:13;3.00;99.90
11818;DHT22;5966;52.402;5.322;2024-01-15T00:12:51;3.00;99.90
11818;DHT22;5966;52.402;5.322;2024-01-15T00:15:26;3.00;99.90
11818;DHT22;5966;52.402;5.322;2024-01-15T00:18:10;3.00;99.90
11818;DHT22;5966;52.402;5.322;2024-01-15T00:20:39;3.00;99.90
11818;DHT22;5966;52.402;5.322;2024-01-15T00:23:09;3.00;99.90
11818;DHT22;5966;52.402;5.322;2024-01-15T00:25:40;3.00;99.90
11818;DHT22;5966;52.402;5.322;2024-01-15T00:28:09;3.00;99.90
11818;DHT22;5966;52.402;5.322;2024-01-15T00:30:40;2.90;99.90
11818;DHT22;5966;52.402;5.322;2024-01-15T00:33:12;2.90;99.90
11818;DHT22;5966;52.402;5.322;2024-01-15T00:35:46;2.90;99.90
11818;DHT22;5966;52.402;5.322;2024-01-15T00:38:15;2.90;99.90
11818;DHT22;5966;52.402;5.322;2024-01-15T00:40:43;2.90;99.90
11818;DHT22;5966;52.402;5.322;2024-01-15T00:43:12;3.00;99.90
11818;DHT22;5966;52.402;5.322;2024-01-15T00:45:42;3.00;99.90
11818;DHT22;5966;52.402;5.322;2024-01-15T00:48:11;3.00;99.90
11818;DHT22;5966;52.402;5.322;2024-01-15T00:50:39;3.00;99.90
11818;DHT22;5966;52.402;5.322;2024-01-15T00:53:10;3.00;99.90
11818;DHT22;5966;52.402;5.322;2024-01-15T00:55:40;3.10;99.90
11818;DHT22;5966;52.402;5.322;2024-01-15T00:58:08;3.10;99.90
11818;DHT22;5966;52.402;5.322;2024-01-15T01:00:47;3.10;99.90
11818;DHT22;5966;52.402;5.322;2024-01-15T01:03:15;3.10;99.90
11818;DHT22;5966;52.402;5.322;2024-01-15T01:05:49;3.00;99.90
11818;DHT22;5966;52.402;5.322;2024-01-15T01:08:17;3.00;99.90
11818;DHT22;5966;52.402;5.322;2024-01-15T01:10:47;3.00;99.90
11818;DHT22;5966;52.402;5.322;2024-01-15T01:16:32;3.00;99.90
11818;DHT22;5966;52.402;5.322;2024-01-15T01:19:06;3.00;99.90
11818;DHT22;5966;52.402;5.322;2024-01-15T01:21:35;2.90;99.90
11818;DHT22;5966;52.402;5.322;2024-01-15T01:24:04;2.90;99.90
11818;DHT22;5966;52.402;5.322;2024-01-15T01:26:33;2.90;99.90
11818;DHT22;5966;52.402;5.322;2024-01-15T01:29:01;2.90;99.90
11818;DHT22;5966;52.402;5.322;2024-01-15T01:31:29;2.90;99.90
11818;DHT22;5966;52.402;5.322;2024-01-15T01:34:03;2.90;99.90
11818;DHT22;5966;52.402;5.322;2024-01-15T01:36:42;2.90;99.90
11818;DHT22;5966;52.402;5.322;2024-01-15T01:39:11;2.80;99.90
11818;DHT22;5966;52.402;5.322;2024-01-15T01:41:39;2.80;99.90
11818;DHT22;5966;52.402;5.322;2024-01-15T01:44:07;2.80;99.90
11818;DHT22;5966;52.402;5.322;2024-01-15T01:46:36;2.80;99.90
11818;DHT22;5966;52.402;5.322;2024-01-15T01:49:14;2.80;99.90
11818;DHT22;5966;52.402;5.322;2024-01-15T01:51:42;2.80;99.90
11818;DHT22;5966;52.402;5.322;2024-01-15T01:54:11;2.80;99.90
11818;DHT22;5966;52.402;5.322;2024-01-15T01:56:43;2.80;99.90
11818;DHT22;5966;52.402;5.322;2024-01-15T01:59:15;2.80;99.90
11818;DHT22;5966;52.402;5.322;2024-01-15T02:01:44;2.80;99.90
11818;DHT22;5966;52.402;5.322;2024-01-15T02:04:19;2.80;99.90
11818;DHT22;5966;52.402;5.322;2024-01-15T02:06:51;2.90;99.90
11818;DHT22;5966;52.402;5.322;2024-01-15T02:09:21;2.90;99.90
11818;DHT22;5966;52.402;5.322;2024-01-15T02:11:51;2.90;99.90
11818;DHT22;5966;52.402;5.322;2024-01-15T02:14:19;2.90;99.90
11818;DHT22;5966;52.402;5.322;2024-01-15T02:16:52;2.90;99.90
11818;DHT22;5966;52.402;5.322;2024-01-15T02:19:22;2.90;99.90
11818;DHT22;5966;52.402;5.322;2024-01-15T02:21:56;2.90;99.90
11818;DHT22;5966;52.402;5.322;2024-01-15T02:24:33;2.90;99.90
11818;DHT22;5966;52.402;5.322;2024-01-15T02:27:02;2.90;99.90
11818;DHT22;5966;52.402;5.322;2024-01-15T02:29:35;2.90;99.90
11818;DHT22;5966;52.402;5.322;2024-01-15T02:32:04;2.90;99.90
11818;DHT22;5966;52.402;5.322;2024-01-15T02:34:37;2.90;99.90
11818;DHT22;5966;52.402;5.322;2024-01-15T02:37:06;2.90;99.90
11818;DHT22;5966;52.402;5.322;2024-01-15T02:39:36;2.90;99.90
11818;DHT22;5966;52.402;5.322;2024-01-15T02:42:05;2.90;99.90
11818;DHT22;5966;52.402;5.322;2024-01-15T02:44:35;2.90;99.90
11818;DHT22;5966;52.402;5.322;2024-01-15T02:47:05;2.90;99.90
11818;DHT22;5966;52.402;5.322;2024-01-15T02:49:34;2.90;99.90
11818;DHT22;5966;52.402;5.322;2024-01-15T02:52:03;2.90;99.90
11818;DHT22;5966;52.402;5.322;2024-01-15T02:54:33;3.00;99.90
11818;DHT22;5966;52.402;5.322;2024-01-15T02:57:03;2.90;99.90
11818;DHT22;5966;52.402;5.322;2024-01-15T02:59:32;2.90;99.90
11818;DHT22;5966;52.402;5.322;2024-01-15T03:02:00;2.80;99.90
11818;DHT22;5966;52.402;5.322;2024-01-15T03:04:28;2.70;99.90
11818;DHT22;5966;52.402;5.322;2024-01-15T03:06:57;2.70;99.90
11818;DHT22;5966;52.402;5.322;2024-01-15T03:09:26;2.70;99.90
11818;DHT22;5966;52.402;5.322;2024-01-15T03:11:56;2.70;99.90
11818;DHT22;5966;52.402;5.322;2024-01-15T03:14:29;2.60;99.90
11818;DHT22;5966;52.402;5.322;2024-01-15T03:17:01;2.60;99.90
11818;DHT22;5966;52.402;5.322;2024-01-15T03:19:30;2.60;99.90
11818;DHT22;5966;52.402;5.322;2024-01-15T03:22:05;2.60;99.90
11818;DHT22;5966;52.402;5.322;2024-01-15T03:24:35;2.60;99.90
11818;DHT22;5966;52.402;5.322;2024-01-15T03:27:05;2.60;99.90
11818;DHT22;5966;52.402;5.322;2024-01-15T03:29:35;2.60;99.90
11818;DHT22;5966;52.402;5.322;2024-01-15T03:32:07;2.60;99.90
11818;DHT22;5966;52.402;5.322;2024-01-15T03:34:35;2.60;99.90
11818;DHT22;5966;52.402;5.322;2024-01-15T03:37:03;2.60;99.90
11818;DHT22;5966;52.402;5.322;2024-01-15T03:39:32;2.60;99.90
11818;DHT22;5966;52.402;5.322;2024-01-15T03:42:01;2.60;99.90
11818;DHT22;5966;52.402;5.322;2024-01-15T03:44:30;2.60;99.90
11818;DHT22;5966;52.402;5.322;2024-01-15T03:47:04;2.60;99.90
11818;DHT22;5966;52.402;5.322;2024-01-15T03:49:36;2.60;99.90
11818;DHT22;5966;52.402;5.322;2024-01-15T03:52:05;2.60;99.90
11818;DHT22;5966;52.402;5.322;2024-01-15T03:54:34;2.60;99.90
11818;DHT22;5966;52.402;5.322;2024-01-15T03:57:02;2.60;99.90
11818;DHT22;5966;52.402;5.322;2024-01-15T03:59:32;2.60;99.90
11818;DHT22;5966;52.402;5.322;2024-01-15T04:02:02;2.60;99.90
11818;DHT22;5966;52.402;5.322;2024-01-15T04:04:31;2.60;99.90
11818;DHT22;5966;52.402;5.322;2024-01-15T04:06:59;2.60;99.90
11818;DHT22;5966;52.402;5.322;2024-01-15T04:09:31;2.60;99.90
11818;DHT22;5966;52.402;5.322;2024-01-15T04:12:00;2.60;99.90
11818;DHT22;5966;52.402;5.322;2024-01-15T04:14:29;2.70;99.90
11818;DHT22;5966;52.402;5.322;2024-01-15T04:16:59;2.70;99.90
11818;DHT22;5966;52.402;5.322;2024-01-15T04:19:29;2.70;99.90
11818;DHT22;5966;52.402;5.322;2024-01-15T04:21:58;2.70;99.90
11818;DHT22;5966;52.402;5.322;2024-01-15T04:24:25;2.70;99.90
11818;DHT22;5966;52.402;5.322;2024-01-15T04:26:53;2.70;99.90
11818;DHT22;5966;52.402;5.322;2024-01-15T04:29:21;2.70;99.90
11818;DHT22;5966;52.402;5.322;2024-01-15T04:31:53;2.70;99.90
11818;DHT22;5966;52.402;5.322;2024-01-15T04:34:21;2.70;99.90
11818;DHT22;5966;52.402;5.322;2024-01-15T04:36:51;2.70;99.90
11818;DHT22;5966;52.402;5.322;2024-01-15T04:39:20;2.70;99.90
11818;DHT22;5966;52.402;5.322;2024-01-15T04:41:49;2.70;99.90
11818;DHT22;5966;52.402;5.322;2024-01-15T04:44:17;2.70;99.90
11818;DHT22;5966;52.402;5.322;2024-01-15T04:46:49;2.70;99.90
11818;DHT22;5966;52.402;5.322;2024-01-15T04:49:17;2.70;99.90
11818;DHT22;5966;52.402;5.322;2024-01-15T04:51:48;2.70;99.90
11818;DHT22;5966;52.402;5.322;2024-01-15T04:54:26;2.80;99.90
11818;DHT22;5966;52.402;5.322;2024-01-15T04:56:55;2.80;99.90
11818;DHT22;5966;52.402;5.322;2024-01-15T04:59:27;2.90;99.90
11818;DHT22;5966;52.402;5.322;2024-01-15T05:01:56;2.90;99.90
11818;DHT22;5966;52.402;5.322;2024-01-15T05:04:24;2.90;99.90
11818;DHT22;5966;52.402;5.322;2024-01-15T05:06:53;2.80;99.90
11818;DHT22;5966;52.402;5.322;2024-01-15T05:09:21;2.80;99.90
11818;DHT22;5966;52.402;5.322;2024-01-15T05:11:51;2.70;99.90
11818;DHT22;5966;52.402;5.322;2024-01-15T05:14:19;2.70;99.90
11818;DHT22;5966;52.402;5.322;2024-01-15T05:16:48;2.60;99.90
11818;DHT22;5966;52.402;5.322;2024-01-15T05:19:16;2.60;99.90
11818;DHT22;5966;52.402;5.322;2024-01-15T05:21:44;2.60;99.90
11818;DHT22;5966;52.402;5.322;2024-01-15T05:24:12;2.60;99.90
11818;DHT22;5966;52.402;5.322;2024-01-15T05:26:40;2.60;99.90
11818;DHT22;5966;52.402;5.322;2024-01-15T05:29:27;2.60;99.90
11818;DHT22;5966;52.402;5.322;2024-01-15T05:31:55;2.50;99.90
11818;DHT22;5966;52.402;5.322;2024-01-15T05:34:28;2.50;99.90
11818;DHT22;5966;52.402;5.322;2024-01-15T05:36:58;2.50;99.90
11818;DHT22;5966;52.402;5.322;2024-01-15T05:39:27;2.50;99.90
11818;DHT22;5966;52.402;5.322;2024-01-15T05:41:56;2.50;99.90
11818;DHT22;5966;52.402;5.322;2024-01-15T05:44:24;2.40;99.90
11818;DHT22;5966;52.402;5.322;2024-01-15T05:47:13;2.40;99.90
11818;DHT22;5966;52.402;5.322;2024-01-15T05:49:45;2.30;99.90
11818;DHT22;5966;52.402;5.322;2024-01-15T05:52:15;2.20;99.90
11818;DHT22;5966;52.402;5.322;2024-01-15T05:54:58;2.10;99.90
11818;DHT22;5966;52.402;5.322;2024-01-15T05:57:27;2.10;99.90
11818;DHT22;5966;52.402;5.322;2024-01-15T05:59:56;2.00;99.90
11818;DHT22;5966;52.402;5.322;2024-01-15T06:02:26;2.00;99.90
11818;DHT22;5966;52.402;5.322;2024-01-15T06:04:54;2.00;99.90
11818;DHT22;5966;52.402;5.322;2024-01-15T06:07:29;2.10;99.90
11818;DHT22;5966;52.402;5.322;2024-01-15T06:09:57;2.10;99.90
11818;DHT22;5966;52.402;5.322;2024-01-15T06:12:30;2.10;99.90
11818;DHT22;5966;52.402;5.322;2024-01-15T06:14:59;2.10;99.90
11818;DHT22;5966;52.402;5.322;2024-01-15T06:17:29;2.10;99.90
11818;DHT22;5966;52.402;5.322;2024-01-15T06:20:00;2.20;99.90
11818;DHT22;5966;52.402;5.322;2024-01-15T06:22:28;2.20;99.90
11818;DHT22;5966;52.402;5.322;2024-01-15T06:24:57;2.20;99.90
11818;DHT22;5966;52.402;5.322;2024-01-15T06:27:33;2.20;99.90
11818;DHT22;5966;52.402;5.322;2024-01-15T06:30:02;2.20;99.90
11818;DHT22;5966;52.402;5.322;2024-01-15T06:32:32;2.20;99.90
11818;DHT22;5966;52.402;5.322;2024-01-15T06:35:01;2.20;99.90
11818;DHT22;5966;52.402;5.322;2024-01-15T06:37:30;2.30;99.90
11818;DHT22;5966;52.402;5.322;2024-01-15T06:39:59;2.30;99.90
11818;DHT22;5966;52.402;5.322;2024-01-15T06:42:28;2.30;99.90
11818;DHT22;5966;52.402;5.322;2024-01-15T06:44:56;2.30;99.90
11818;DHT22;5966;52.402;5.322;2024-01-15T06:47:28;2.30;99.90
11818;DHT22;5966;52.402;5.322;2024-01-15T06:50:02;2.30;99.90
11818;DHT22;5966;52.402;5.322;2024-01-15T06:52:32;2.30;99.90
11818;DHT22;5966;52.402;5.322;2024-01-15T06:55:01;2.30;99.90
11818;DHT22;5966;52.402;5.322;2024-01-15T06:57:30;2.30;99.90
11818;DHT22;5966;52.402;5.322;2024-01-15T07:00:03;2.30;99.90
11818;DHT22;5966;52.402;5.322;2024-01-15T07:02:46;2.30;99.90
11818;DHT22;5966;52.402;5.322;2024-01-15T07:05:23;2.30;99.90
11818;DHT22;5966;52.402;5.322;2024-01-15T07:08:13;2.40;99.90
11818;DHT22;5966;52.402;5.322;2024-01-15T07:10:42;2.40;99.90
11818;DHT22;5966;52.402;5.322;2024-01-15T07:13:31;2.30;99.90
11818;DHT22;5966;52.402;5.322;2024-01-15T07:16:21;2.30;99.90
11818;DHT22;5966;52.402;5.322;2024-01-15T07:19:03;2.30;99.90
11818;DHT22;5966;52.402;5.322;2024-01-15T07:22:03;2.30;99.90
11818;DHT22;5966;52.402;5.322;2024-01-15T07:24:32;2.30;99.90
11818;DHT22;5966;52.402;5.322;2024-01-15T07:27:01;2.30;99.90
11818;DHT22;5966;52.402;5.322;2024-01-15T07:29:31;2.20;99.90
11818;DHT22;5966;52.402;5.322;2024-01-15T07:32:03;2.20;99.90
11818;DHT22;5966;52.402;5.322;2024-01-15T07:34:34;2.20;99.90
11818;DHT22;5966;52.402;5.322;2024-01-15T07:37:05;2.20;99.90
11818;DHT22;5966;52.402;5.322;2024-01-15T07:39:34;2.20;99.90
11818;DHT22;5966;52.402;5.322;2024-01-15T07:42:31;2.20;99.90
11818;DHT22;5966;52.402;5.322;2024-01-15T07:45:29;2.20;99.90
11818;DHT22;5966;52.402;5.322;2024-01-15T07:48:27;2.20;99.90
11818;DHT22;5966;52.402;5.322;2024-01-15T07:51:18;2.20;99.90
11818;DHT22;5966;52.402;5.322;2024-01-15T08:00:44;2.10;99.90
11818;DHT22;5966;52.402;5.322;2024-01-15T08:03:12;2.10;99.90
11818;DHT22;5966;52.402;5.322;2024-01-15T08:05:42;2.10;99.90
11818;DHT22;5966;52.402;5.322;2024-01-15T08:08:10;2.20;99.90
11818;DHT22;5966;52.402;5.322;2024-01-15T08:10:42;2.20;99.90
11818;DHT22;5966;52.402;5.322;2024-01-15T08:13:28;2.20;99.90
11818;DHT22;5966;52.402;5.322;2024-01-15T08:30:20;2.20;99.90
11818;DHT22;5966;52.402;5.322;2024-01-15T08:33:27;2.20;99.90
11818;DHT22;5966;52.402;5.322;2024-01-15T08:36:13;2.20;99.90
11818;DHT22;5966;52.402;5.322;2024-01-15T08:38:55;2.20;99.90
11818;DHT22;5966;52.402;5.322;2024-01-15T08:42:14;2.30;99.90
11818;DHT22;5966;52.402;5.322;2024-01-15T08:45:04;2.30;99.90
11818;DHT22;5966;52.402;5.322;2024-01-15T09:02:08;2.10;99.90
11818;DHT22;5966;52.402;5.322;2024-01-15T09:04:37;2.10;99.90
11818;DHT22;5966;52.402;5.322;2024-01-15T09:07:06;2.10;99.90
11818;DHT22;5966;52.402;5.322;2024-01-15T09:09:38;2.10;99.90
11818;DHT22;5966;52.402;5.322;2024-01-15T09:12:22;2.20;99.90
11818;DHT22;5966;52.402;5.322;2024-01-15T09:14:50;2.20;99.90
11818;DHT22;5966;52.402;5.322;2024-01-15T09:17:22;2.20;99.90
11818;DHT22;5966;52.402;5.322;2024-01-15T09:20:16;2.20;99.90
11818;DHT22;5966;52.402;5.322;2024-01-15T09:22:45;2.20;99.90
11818;DHT22;5966;52.402;5.322;2024-01-15T09:25:14;2.20;99.90
11818;DHT22;5966;52.402;5.322;2024-01-15T09:27:51;2.20;99.90
11818;DHT22;5966;52.402;5.322;2024-01-15T09:30:20;2.20;99.90
11818;DHT22;5966;52.402;5.322;2024-01-15T09:33:05;2.20;99.90
11818;DHT22;5966;52.402;5.322;2024-01-15T09:35:35;2.30;99.90
11818;DHT22;5966;52.402;5.322;2024-01-15T09:38:30;2.30;99.90
11818;DHT22;5966;52.402;5.322;2024-01-15T09:41:00;2.30;99.90
11818;DHT22;5966;52.402;5.322;2024-01-15T09:48:38;2.30;99.90
11818;DHT22;5966;52.402;5.322;2024-01-15T09:51:08;2.40;99.90
11818;DHT22;5966;52.402;5.322;2024-01-15T09:54:14;2.40;99.90
11818;DHT22;5966;52.402;5.322;2024-01-15T09:57:12;2.50;99.90
11818;DHT22;5966;52.402;5.322;2024-01-15T09:59:59;2.50;99.90
11818;DHT22;5966;52.402;5.322;2024-01-15T10:02:45;2.50;99.90
11818;DHT22;5966;52.402;5.322;2024-01-15T10:05:37;2.60;99.90
11818;DHT22;5966;52.402;5.322;2024-01-15T10:08:05;2.60;99.90
11818;DHT22;5966;52.402;5.322;2024-01-15T10:10:36;2.70;99.90
11818;DHT22;5966;52.402;5.322;2024-01-15T10:13:04;2.70;99.90
11818;DHT22;5966;52.402;5.322;2024-01-15T10:15:34;2.80;99.90
11818;DHT22;5966;52.402;5.322;2024-01-15T10:18:04;2.80;99.90
11818;DHT22;5966;52.402;5.322;2024-01-15T10:20:32;2.80;99.90
11818;DHT22;5966;52.402;5.322;2024-01-15T10:23:03;2.80;99.90
11818;DHT22;5966;52.402;5.322;2024-01-15T10:25:31;2.90;99.90
11818;DHT22;5966;52.402;5.322;2024-01-15T10:28:00;2.90;99.90
11818;DHT22;5966;52.402;5.322;2024-01-15T10:30:29;2.90;99.90
11818;DHT22;5966;52.402;5.322;2024-01-15T10:32:58;2.90;99.90
11818;DHT22;5966;52.402;5.322;2024-01-15T10:35:29;2.90;99.90
11818;DHT22;5966;52.402;5.322;2024-01-15T10:38:02;2.90;99.90
11818;DHT22;5966;52.402;5.322;2024-01-15T10:40:31;2.90;99.90
11818;DHT22;5966;52.402;5.322;2024-01-15T10:43:00;2.80;99.90
11818;DHT22;5966;52.402;5.322;2024-01-15T10:45:28;2.80;99.90
11818;DHT22;5966;52.402;5.322;2024-01-15T10:47:58;2.80;99.90
11818;DHT22;5966;52.402;5.322;2024-01-15T10:50:29;2.80;99.90
11818;DHT22;5966;52.402;5.322;2024-01-15T10:52:59;2.80;99.90
11818;DHT22;5966;52.402;5.322;2024-01-15T10:55:39;2.80;99.90
11818;DHT22;5966;52.402;5.322;2024-01-15T10:58:20;2.80;99.90
11818;DHT22;5966;52.402;5.322;2024-01-15T11:00:50;2.80;99.90
11818;DHT22;5966;52.402;5.322;2024-01-15T11:03:18;2.70;99.90
11818;DHT22;5966;52.402;5.322;2024-01-15T11:05:57;2.70;99.90
11818;DHT22;5966;52.402;5.322;2024-01-15T11:08:35;2.70;99.90
11818;DHT22;5966;52.402;5.322;2024-01-15T11:11:27;2.70;99.90
11818;DHT22;5966;52.402;5.322;2024-01-15T11:13:56;2.70;99.90
11818;DHT22;5966;52.402;5.322;2024-01-15T11:22:47;2.70;99.90
11818;DHT22;5966;52.402;5.322;2024-01-15T11:25:17;2.70;99.90
11818;DHT22;5966;52.402;5.322;2024-01-15T11:27:51;2.80;99.90
11818;DHT22;5966;52.402;5.322;2024-01-15T11:31:14;2.80;99.90
11818;DHT22;5966;52.402;5.322;2024-01-15T11:33:48;2.90;99.90
11818;DHT22;5966;52.402;5.322;2024-01-15T11:37:05;2.90;99.90
11818;DHT22;5966;52.402;5.322;2024-01-15T11:39:45;3.00;99.90
11818;DHT22;5966;52.402;5.322;2024-01-15T11:42:15;3.00;99.90
11818;DHT22;5966;52.402;5.322;2024-01-15T11:44:44;2.80;99.90
11818;DHT22;5966;52.402;5.322;2024-01-15T11:47:13;2.70;99.90
11818;DHT22;5966;52.402;5.322;2024-01-15T11:50:00;2.70;99.90
11818;DHT22;5966;52.402;5.322;2024-01-15T11:52:33;2.60;99.90
11818;DHT22;5966;52.402;5.322;2024-01-15T11:55:12;2.60;99.90
11818;DHT22;5966;52.402;5.322;2024-01-15T11:57:54;2.50;99.90
11818;DHT22;5966;52.402;5.322;2024-01-15T12:00:24;2.60;99.90
11818;DHT22;5966;52.402;5.322;2024-01-15T12:03:00;2.60;99.90
11818;DHT22;5966;52.402;5.322;2024-01-15T12:06:10;2.60;99.90
11818;DHT22;5966;52.402;5.322;2024-01-15T12:13:02;2.60;99.90
11818;DHT22;5966;52.402;5.322;2024-01-15T12:16:37;2.60;99.90
11818;DHT22;5966;52.402;5.322;2024-01-15T12:19:44;2.70;99.90
11818;DHT22;5966;52.402;5.322;2024-01-15T13:36:45;2.60;99.90
11818;DHT22;5966;52.402;5.322;2024-01-15T13:39:15;2.40;99.90
11818;DHT22;5966;52.402;5.322;2024-01-15T13:41:49;2.30;99.90
11818;DHT22;5966;52.402;5.322;2024-01-15T13:47:55;2.20;99.90
11818;DHT22;5966;52.402;5.322;2024-01-15T13:53:34;2.20;99.90
11818;DHT22;5966;52.402;5.322;2024-01-15T13:56:11;2.30;99.90
11818;DHT22;5966;52.402;5.322;2024-01-15T13:58:47;2.30;99.90
11818;DHT22;5966;52.402;5.322;2024-01-15T14:01:34;2.30;99.90
11818;DHT22;5966;52.402;5.322;2024-01-15T14:04:20;2.40;99.90
11818;DHT22;5966;52.402;5.322;2024-01-15T14:06:49;2.40;99.90
11818;DHT22;5966;52.402;5.322;2024-01-15T14:09:37;2.50;99.90
11818;DHT22;5966;52.402;5.322;2024-01-15T14:12:37;2.60;99.90
11818;DHT22;5966;52.402;5.322;2024-01-15T14:18:19;2.40;99.90
11818;DHT22;5966;52.402;5.322;2024-01-15T14:20:51;2.40;99.90
11818;DHT22;5966;52.402;5.322;2024-01-15T14:23:27;2.30;99.90
11818;DHT22;5966;52.402;5.322;2024-01-15T14:25:56;2.30;99.90
11818;DHT22;5966;52.402;5.322;2024-01-15T14:28:25;2.40;99.90
11818;DHT22;5966;52.402;5.322;2024-01-15T14:30:53;2.40;99.90
11818;DHT22;5966;52.402;5.322;2024-01-15T14:36:34;2.50;99.90
11818;DHT22;5966;52.402;5.322;2024-01-15T14:39:02;2.50;99.90
11818;DHT22;5966;52.402;5.322;2024-01-15T14:41:33;2.60;99.90
11818;DHT22;5966;52.402;5.322;2024-01-15T14:44:01;2.60;99.90
11818;DHT22;5966;52.402;5.322;2024-01-15T14:46:30;2.60;99.90
11818;DHT22;5966;52.402;5.322;2024-01-15T14:48:58;2.70;99.90
11818;DHT22;5966;52.402;5.322;2024-01-15T14:51:27;2.70;99.90
11818;DHT22;5966;52.402;5.322;2024-01-15T14:53:57;2.70;99.90
11818;DHT22;5966;52.402;5.322;2024-01-15T14:56:30;2.80;99.90
11818;DHT22;5966;52.402;5.322;2024-01-15T14:59:09;2.80;99.90
11818;DHT22;5966;52.402;5.322;2024-01-15T15:01:37;2.80;91.20
11818;DHT22;5966;52.402;5.322;2024-01-15T15:04:16;2.80;91.00
11818;DHT22;5966;52.402;5.322;2024-01-15T15:07:14;2.90;90.70
11818;DHT22;5966;52.402;5.322;2024-01-15T15:09:43;2.90;75.30
11818;DHT22;5966;52.402;5.322;2024-01-15T15:12:14;2.90;91.50
11818;DHT22;5966;52.402;5.322;2024-01-15T15:14:52;2.90;99.90
11818;DHT22;5966;52.402;5.322;2024-01-15T15:17:54;2.80;99.90
11818;DHT22;5966;52.402;5.322;2024-01-15T15:20:25;2.80;99.90
11818;DHT22;5966;52.402;5.322;2024-01-15T15:23:01;2.70;99.90
11818;DHT22;5966;52.402;5.322;2024-01-15T15:26:13;2.60;99.90
11818;DHT22;5966;52.402;5.322;2024-01-15T15:29:05;2.50;99.90
11818;DHT22;5966;52.402;5.322;2024-01-15T15:31:35;2.40;99.90
11818;DHT22;5966;52.402;5.322;2024-01-15T15:34:03;2.40;99.90
11818;DHT22;5966;52.402;5.322;2024-01-15T15:36:32;2.30;99.90
11818;DHT22;5966;52.402;5.322;2024-01-15T15:39:03;2.30;99.90
11818;DHT22;5966;52.402;5.322;2024-01-15T15:41:31;2.30;99.90
11818;DHT22;5966;52.402;5.322;2024-01-15T15:44:41;2.20;99.90
11818;DHT22;5966;52.402;5.322;2024-01-15T15:47:25;2.20;99.90
11818;DHT22;5966;52.402;5.322;2024-01-15T15:50:13;2.10;99.90
11818;DHT22;5966;52.402;5.322;2024-01-15T15:52:48;2.10;99.90
11818;DHT22;5966;52.402;5.322;2024-01-15T15:55:37;2.10;99.90
11818;DHT22;5966;52.402;5.322;2024-01-15T15:58:36;2.10;99.90
11818;DHT22;5966;52.402;5.322;2024-01-15T16:01:32;2.20;99.90
11818;DHT22;5966;52.402;5.322;2024-01-15T16:04:49;2.20;99.90
11818;DHT22;5966;52.402;5.322;2024-01-15T16:07:43;2.30;99.90
11818;DHT22;5966;52.402;5.322;2024-01-15T16:14:14;2.40;99.90
11818;DHT22;5966;52.402;5.322;2024-01-15T16:21:36;2.40;99.90
11818;DHT22;5966;52.402;5.322;2024-01-15T16:24:32;2.40;99.90
11818;DHT22;5966;52.402;5.322;2024-01-15T16:27:42;2.40;99.90
11818;DHT22;5966;52.402;5.322;2024-01-15T16:30:27;2.40;99.90
11818;DHT22;5966;52.402;5.322;2024-01-15T16:33:11;2.40;99.90
11818;DHT22;5966;52.402;5.322;2024-01-15T16:35:52;2.40;99.90
11818;DHT22;5966;52.402;5.322;2024-01-15T16:38:22;2.40;99.90
11818;DHT22;5966;52.402;5.322;2024-01-15T16:40:51;2.40;99.90
11818;DHT22;5966;52.402;5.322;2024-01-15T16:47:07;2.40;99.90
11818;DHT22;5966;52.402;5.322;2024-01-15T16:49:37;2.50;99.90
11818;DHT22;5966;52.402;5.322;2024-01-15T16:52:19;2.50;99.90
11818;DHT22;5966;52.402;5.322;2024-01-15T16:54:56;2.50;99.90
11818;DHT22;5966;52.402;5.322;2024-01-15T16:57:26;2.50;99.90
11818;DHT22;5966;52.402;5.322;2024-01-15T17:00:13;2.50;99.90
11818;DHT22;5966;52.402;5.322;2024-01-15T17:02:57;2.50;99.90
11818;DHT22;5966;52.402;5.322;2024-01-15T17:05:47;2.50;99.90
11818;DHT22;5966;52.402;5.322;2024-01-15T17:09:01;2.50;99.90
11818;DHT22;5966;52.402;5.322;2024-01-15T17:14:53;2.60;99.90
11818;DHT22;5966;52.402;5.322;2024-01-15T17:24:39;2.60;99.90
11818;DHT22;5966;52.402;5.322;2024-01-15T17:27:16;2.60;99.90
11818;DHT22;5966;52.402;5.322;2024-01-15T17:29:48;2.50;99.90
11818;DHT22;5966;52.402;5.322;2024-01-15T17:32:52;2.50;99.90
11818;DHT22;5966;52.402;5.322;2024-01-15T17:35:27;2.50;99.90
11818;DHT22;5966;52.402;5.322;2024-01-15T17:37:55;2.50;99.90
11818;DHT22;5966;52.402;5.322;2024-01-15T17:40:29;2.60;99.90
11818;DHT22;5966;52.402;5.322;2024-01-15T17:42:57;2.60;98.60
11818;DHT22;5966;52.402;5.322;2024-01-15T17:45:26;2.60;95.30
11818;DHT22;5966;52.402;5.322;2024-01-15T17:48:24;2.70;99.90
11818;DHT22;5966;52.402;5.322;2024-01-15T17:51:33;2.70;99.90
11818;DHT22;5966;52.402;5.322;2024-01-15T17:54:11;2.60;99.90
11818;DHT22;5966;52.402;5.322;2024-01-15T17:56:50;2.60;99.90
11818;DHT22;5966;52.402;5.322;2024-01-15T17:59:43;2.60;99.90
11818;DHT22;5966;52.402;5.322;2024-01-15T18:02:15;2.60;99.90
11818;DHT22;5966;52.402;5.322;2024-01-15T18:05:05;2.60;99.90
11818;DHT22;5966;52.402;5.322;2024-01-15T18:08:26;2.60;99.90
11818;DHT22;5966;52.402;5.322;2024-01-15T18:11:00;2.60;99.90
11818;DHT22;5966;52.402;5.322;2024-01-15T18:14:08;2.50;99.90
11818;DHT22;5966;52.402;5.322;2024-01-15T18:16:52;2.50;99.90
11818;DHT22;5966;52.402;5.322;2024-01-15T18:19:23;2.50;99.90
11818;DHT22;5966;52.402;5.322;2024-01-15T18:21:54;2.50;99.90
11818;DHT22;5966;52.402;5.322;2024-01-15T18:24:26;2.50;99.90
11818;DHT22;5966;52.402;5.322;2024-01-15T18:26:54;2.50;99.90
11818;DHT22;5966;52.402;5.322;2024-01-15T18:29:26;2.50;99.90
11818;DHT22;5966;52.402;5.322;2024-01-15T18:31:59;2.50;99.90
11818;DHT22;5966;52.402;5.322;2024-01-15T18:34:29;2.50;99.90
11818;DHT22;5966;52.402;5.322;2024-01-15T18:37:19;2.50;99.90
11818;DHT22;5966;52.402;5.322;2024-01-15T18:39:59;2.50;99.90
11818;DHT22;5966;52.402;5.322;2024-01-15T18:42:39;2.50;99.90
11818;DHT22;5966;52.402;5.322;2024-01-15T18:45:13;2.50;99.90
11818;DHT22;5966;52.402;5.322;2024-01-15T18:47:45;2.50;99.90
11818;DHT22;5966;52.402;5.322;2024-01-15T18:50:17;2.50;99.90
11818;DHT22;5966;52.402;5.322;2024-01-15T18:52:51;2.50;99.90
11818;DHT22;5966;52.402;5.322;2024-01-15T18:55:21;2.50;99.90
11818;DHT22;5966;52.402;5.322;2024-01-15T18:57:54;2.50;99.90
11818;DHT22;5966;52.402;5.322;2024-01-15T19:00:29;2.50;99.90
11818;DHT22;5966;52.402;5.322;2024-01-15T19:03:06;2.40;99.90
11818;DHT22;5966;52.402;5.322;2024-01-15T19:06:01;2.40;99.90
11818;DHT22;5966;52.402;5.322;2024-01-15T19:11:40;2.40;99.90
11818;DHT22;5966;52.402;5.322;2024-01-15T19:15:00;2.40;99.90
11818;DHT22;5966;52.402;5.322;2024-01-15T19:17:29;2.40;99.90
11818;DHT22;5966;52.402;5.322;2024-01-15T19:20:01;2.40;99.90
11818;DHT22;5966;52.402;5.322;2024-01-15T19:23:06;2.40;99.90
11818;DHT22;5966;52.402;5.322;2024-01-15T19:25:38;2.40;99.90
11818;DHT22;5966;52.402;5.322;2024-01-15T19:28:46;2.40;99.90
11818;DHT22;5966;52.402;5.322;2024-01-15T19:31:14;2.40;99.90
11818;DHT22;5966;52.402;5.322;2024-01-15T19:33:46;2.40;99.90
11818;DHT22;5966;52.402;5.322;2024-01-15T19:36:21;2.40;99.90
11818;DHT22;5966;52.402;5.322;2024-01-15T19:38:50;2.40;99.90
11818;DHT22;5966;52.402;5.322;2024-01-15T19:41:21;2.40;99.90
11818;DHT22;5966;52.402;5.322;2024-01-15T19:43:58;2.30;99.90